Time;durP1;ratioP1;P1;durP2;ratioP2;P2;SDS_P1;SDS_P2;PMS_P1;PMS_P2;Temp;Humidity;BMP_temperature;BMP_pressure;BME280_temperature;BME280_humidity;BME280_pressure;Samples;Min_cycle;Max_cycle;Signal;HPM_P1;HPM_P2
2021/12/28 00:00:33;;;;;;;43.05;31.38;;;5.80;99.90;;;;;;5104703;28;20043;-82
2021/12/28 00:02:59;;;;;;;41.60;31.70;;;5.80;99.90;;;;;;5096361;28;20370;-82
2021/12/28 00:05:27;;;;;;;42.20;31.48;;;5.80;99.90;;;;;;5105024;28;20086;-84
2021/12/28 00:07:52;;;;;;;43.22;32.15;;;5.80;99.90;;;;;;5096228;28;20154;-83
2021/12/28 00:10:20;;;;;;;44.50;32.85;;;5.80;99.90;;;;;;5097729;28;20126;-83
2021/12/28 00:12:46;;;;;;;42.55;32.53;;;5.80;99.90;;;;;;5096149;28;20044;-83
2021/12/28 00:18:04;;;;;;;44.15;33.33;;;5.80;99.90;;;;;;5096187;28;20413;-84
2021/12/28 00:20:38;;;;;;;44.80;33.35;;;5.80;99.90;;;;;;5113193;28;20153;-83
2021/12/28 00:23:10;;;;;;;49.78;35.20;;;5.80;99.90;;;;;;5115724;27;20058;-84
2021/12/28 00:25:36;;;;;;;47.78;34.15;;;5.90;99.90;;;;;;5107259;28;20402;-84
2021/12/28 00:28:03;;;;;;;51.58;35.20;;;5.80;99.90;;;;;;5101718;28;20036;-83
2021/12/28 00:30:29;;;;;;;53.83;35.25;;;5.80;99.90;;;;;;5102407;28;20044;-84
2021/12/28 00:32:56;;;;;;;51.88;34.78;;;5.80;99.90;;;;;;5100106;28;20114;-84
2021/12/28 00:35:25;;;;;;;52.80;36.75;;;5.80;99.90;;;;;;5110869;28;20036;-84
2021/12/28 00:37:51;;;;;;;57.65;37.67;;;5.80;99.90;;;;;;5098810;28;20039;-83
2021/12/28 00:40:17;;;;;;;55.33;37.33;;;5.90;99.90;;;;;;5107042;28;20036;-83
2021/12/28 00:42:43;;;;;;;57.65;37.42;;;5.80;99.90;;;;;;5097469;28;20105;-85
2021/12/28 00:45:09;;;;;;;55.38;37.65;;;5.80;99.90;;;;;;5115874;28;20044;-85
2021/12/28 00:47:35;;;;;;;56.47;35.95;;;5.80;99.90;;;;;;5115888;28;20050;-80
2021/12/28 00:50:02;;;;;;;59.58;38.35;;;5.80;99.90;;;;;;5098274;28;20039;-83
2021/12/28 00:52:27;;;;;;;62.75;38.83;;;5.80;99.90;;;;;;5109519;28;20097;-82
2021/12/28 00:54:53;;;;;;;64.53;38.58;;;5.80;99.90;;;;;;5096394;28;20044;-83
2021/12/28 00:57:19;;;;;;;62.00;39.85;;;5.80;99.90;;;;;;5096031;28;20064;-83
2021/12/28 00:59:44;;;;;;;69.03;42.25;;;5.80;99.90;;;;;;5116099;28;20075;-84
2021/12/28 01:02:10;;;;;;;67.32;42.15;;;5.80;99.90;;;;;;5106104;28;20561;-83
2021/12/28 01:04:36;;;;;;;68.30;40.42;;;5.90;99.90;;;;;;5095638;28;20070;-83
2021/12/28 01:07:02;;;;;;;74.93;43.78;;;5.90;99.90;;;;;;5095372;28;20070;-84
2021/12/28 01:09:29;;;;;;;71.57;42.92;;;5.90;99.90;;;;;;5095554;28;20052;-84
2021/12/28 01:11:59;;;;;;;73.95;42.92;;;5.90;99.90;;;;;;5095259;28;20052;-84
2021/12/28 01:14:26;;;;;;;72.20;42.58;;;6.00;99.90;;;;;;5095678;28;20040;-84
2021/12/28 01:16:51;;;;;;;74.32;42.33;;;6.00;99.90;;;;;;5109797;28;20404;-84
2021/12/28 01:19:17;;;;;;;77.13;42.72;;;6.00;99.90;;;;;;5115765;28;20044;-83
2021/12/28 01:21:43;;;;;;;81.80;42.47;;;6.00;99.90;;;;;;5104774;28;20051;-83
2021/12/28 01:24:09;;;;;;;78.60;44.95;;;6.00;99.90;;;;;;5102678;28;20072;-83
2021/12/28 01:26:34;;;;;;;78.60;42.90;;;6.00;99.90;;;;;;5101886;28;20035;-84
2021/12/28 01:29:00;;;;;;;78.85;43.05;;;6.00;99.90;;;;;;5100370;27;20047;-83
2021/12/28 01:31:26;;;;;;;83.05;45.40;;;6.10;99.90;;;;;;5103913;28;20498;-84
2021/12/28 01:33:51;;;;;;;83.47;43.97;;;6.10;99.90;;;;;;5114510;28;20122;-84
2021/12/28 01:36:17;;;;;;;88.35;46.25;;;6.10;99.90;;;;;;5107810;28;20042;-84
2021/12/28 01:38:43;;;;;;;84.10;43.72;;;6.10;99.90;;;;;;5094902;28;20051;-84
2021/12/28 01:41:10;;;;;;;89.43;46.72;;;6.10;99.90;;;;;;5094607;28;20043;-83
2021/12/28 01:43:40;;;;;;;96.45;45.78;;;6.10;99.90;;;;;;5094823;28;20121;-84
2021/12/28 01:46:06;;;;;;;97.83;47.83;;;6.10;99.90;;;;;;5098011;28;20104;-83
2021/12/28 01:48:36;;;;;;;91.15;47.22;;;6.20;99.90;;;;;;5113541;28;20097;-83
2021/12/28 01:51:09;;;;;;;94.47;45.55;;;6.10;99.90;;;;;;5112777;28;20109;-83
2021/12/28 01:53:35;;;;;;;96.65;46.95;;;6.20;99.90;;;;;;5115135;28;20433;-83
2021/12/28 01:56:09;;;;;;;94.65;46.28;;;6.10;99.90;;;;;;5112219;28;20039;-83
2021/12/28 01:58:35;;;;;;;93.93;44.83;;;6.20;99.90;;;;;;5094592;28;20177;-83
2021/12/28 02:01:02;;;;;;;100.43;46.30;;;6.20;99.90;;;;;;5094211;28;20055;-83
2021/12/28 02:03:31;;;;;;;102.57;49.90;;;6.20;99.90;;;;;;5096933;28;20071;-82
2021/12/28 02:05:57;;;;;;;91.95;46.30;;;6.30;99.90;;;;;;5110610;28;20561;-81
2021/12/28 02:08:23;;;;;;;100.05;46.53;;;6.30;99.90;;;;;;5093844;28;20087;-83
2021/12/28 02:10:52;;;;;;;99.47;47.25;;;6.30;99.90;;;;;;5096074;28;20508;-82
2021/12/28 02:13:18;;;;;;;93.78;45.75;;;6.30;99.90;;;;;;5114158;28;20508;-83
2021/12/28 02:15:45;;;;;;;97.03;44.85;;;6.30;99.90;;;;;;5112886;28;20112;-83
2021/12/28 02:18:13;;;;;;;94.50;45.03;;;6.30;99.90;;;;;;5114192;28;20066;-83
2021/12/28 02:20:40;;;;;;;90.47;42.60;;;6.30;99.90;;;;;;5106491;28;20442;-84
2021/12/28 02:23:06;;;;;;;92.05;44.63;;;6.30;99.90;;;;;;5113980;28;20035;-82
2021/12/28 02:25:32;;;;;;;97.70;45.33;;;6.30;99.90;;;;;;5112569;28;20040;-83
2021/12/28 02:27:59;;;;;;;101.90;45.63;;;6.30;99.90;;;;;;5114392;28;20055;-84
2021/12/28 02:30:25;;;;;;;99.53;46.40;;;6.30;99.90;;;;;;5102726;27;20114;-83
2021/12/28 02:32:51;;;;;;;94.50;44.92;;;6.30;99.90;;;;;;5114776;28;20047;-83
2021/12/28 02:35:25;;;;;;;97.43;45.63;;;6.30;99.90;;;;;;5111519;28;20480;-83
2021/12/28 02:37:52;;;;;;;101.75;45.58;;;6.30;99.90;;;;;;5112771;28;20043;-83
2021/12/28 02:40:21;;;;;;;100.53;46.83;;;6.30;99.90;;;;;;5102436;28;20047;-83
2021/12/28 02:42:48;;;;;;;99.47;44.80;;;6.30;99.90;;;;;;5114223;27;20085;-83
2021/12/28 02:45:21;;;;;;;102.20;47.05;;;6.30;99.90;;;;;;5102426;28;20075;-83
2021/12/28 02:47:47;;;;;;;101.38;46.22;;;6.30;99.90;;;;;;5093640;28;20405;-83
2021/12/28 02:50:35;;;;;;;102.22;45.63;;;6.30;99.90;;;;;;5100961;28;20052;-83
2021/12/28 02:53:02;;;;;;;101.07;44.28;;;6.30;99.90;;;;;;5092914;28;20581;-83
2021/12/28 02:55:31;;;;;;;103.10;45.08;;;6.20;99.90;;;;;;5105474;28;20067;-83
2021/12/28 02:58:31;;;;;;;116.43;46.65;;;6.20;99.90;;;;;;5096875;28;20060;-83
2021/12/28 03:01:16;;;;;;;128.13;48.17;;;6.20;99.90;;;;;;5107197;28;20082;-83
2021/12/28 03:03:47;;;;;;;132.65;50.47;;;6.20;99.90;;;;;;5112692;28;20043;-82
2021/12/28 03:06:15;;;;;;;;;;;6.10;99.90;;;;;;5102618;28;20086;-82
2021/12/28 03:08:43;;;;;;;186.90;54.33;;;6.10;99.90;;;;;;5093291;28;19923;-82
2021/12/28 03:11:09;;;;;;;221.48;57.67;;;6.10;99.90;;;;;;5109408;28;20046;-82
2021/12/28 03:13:51;;;;;;;194.68;53.10;;;6.10;99.90;;;;;;5113107;28;20040;-82
2021/12/28 03:16:18;;;;;;;244.23;59.45;;;6.00;99.90;;;;;;5095396;28;20051;-82
2021/12/28 03:18:45;;;;;;;268.48;58.20;;;6.00;99.90;;;;;;5093282;28;20084;-83
2021/12/28 03:21:16;;;;;;;308.90;61.10;;;6.00;99.90;;;;;;5098801;28;20044;-82
2021/12/28 03:23:42;;;;;;;368.00;65.78;;;6.00;99.90;;;;;;5113434;28;20047;-83
2021/12/28 03:26:09;;;;;;;320.10;63.38;;;6.00;99.90;;;;;;5095059;28;20051;-83
2021/12/28 03:28:39;;;;;;;392.48;65.65;;;6.00;99.90;;;;;;5093047;28;20048;-85
2021/12/28 03:31:07;;;;;;;381.52;69.30;;;6.00;99.90;;;;;;5109753;28;20044;-84
2021/12/28 03:33:35;;;;;;;344.95;66.28;;;6.00;99.90;;;;;;5099043;28;20082;-84
2021/12/28 03:36:01;;;;;;;380.30;69.15;;;6.10;99.90;;;;;;5093164;28;20054;-84
2021/12/28 03:38:27;;;;;;;346.75;66.85;;;6.10;99.90;;;;;;5097916;28;20044;-85
2021/12/28 03:40:54;;;;;;;320.05;60.95;;;6.10;99.90;;;;;;5091830;28;20396;-84
2021/12/28 03:43:20;;;;;;;324.90;62.70;;;6.10;99.90;;;;;;5103563;28;20487;-84
2021/12/28 03:45:47;;;;;;;364.17;65.45;;;6.10;99.90;;;;;;5103590;28;20040;-84
2021/12/28 03:48:13;;;;;;;244.77;56.45;;;6.20;99.90;;;;;;5092586;28;20044;-73
2021/12/28 03:50:39;;;;;;;260.08;59.58;;;6.10;99.90;;;;;;5093797;28;20058;-84
2021/12/28 03:53:07;;;;;;;286.40;60.03;;;6.10;99.90;;;;;;5103687;28;20039;-84
2021/12/28 03:55:33;;;;;;;265.90;57.55;;;6.20;99.90;;;;;;5104392;28;20048;-84
2021/12/28 03:58:00;;;;;;;278.55;57.28;;;6.10;99.90;;;;;;5092822;28;20108;-84
2021/12/28 04:00:29;;;;;;;276.45;58.33;;;6.10;99.90;;;;;;5103451;28;20043;-83
2021/12/28 04:02:55;;;;;;;261.92;57.17;;;6.20;99.90;;;;;;5113001;28;20518;-84
2021/12/28 04:05:21;;;;;;;357.25;61.22;;;6.10;99.90;;;;;;5102278;28;20036;-84
2021/12/28 04:07:48;;;;;;;311.60;57.65;;;6.10;99.90;;;;;;5099435;28;20058;-84
2021/12/28 04:10:15;;;;;;;320.80;59.10;;;6.00;99.90;;;;;;5104158;28;20044;-84
2021/12/28 04:12:42;;;;;;;281.95;55.42;;;5.90;99.90;;;;;;5092286;28;20554;-83
2021/12/28 04:15:11;;;;;;;324.88;57.33;;;5.90;99.90;;;;;;5099607;28;20043;-83
2021/12/28 04:17:38;;;;;;;302.67;57.85;;;5.80;99.90;;;;;;5112472;28;20392;-83
2021/12/28 04:20:07;;;;;;;225.95;52.10;;;5.80;99.90;;;;;;5106820;28;20040;-82
2021/12/28 04:22:33;;;;;;;243.15;53.63;;;5.70;99.90;;;;;;5092087;28;20052;-83
2021/12/28 04:24:58;;;;;;;259.10;54.00;;;5.70;99.90;;;;;;5093720;28;20043;-83
2021/12/28 04:27:24;;;;;;;240.43;52.92;;;5.60;99.90;;;;;;5095460;28;20078;-83
2021/12/28 04:29:50;;;;;;;230.93;52.33;;;5.60;99.90;;;;;;5100253;28;20076;-83
2021/12/28 04:32:15;;;;;;;238.68;54.38;;;5.60;99.90;;;;;;5116676;28;20044;-84
2021/12/28 04:34:42;;;;;;;235.80;51.80;;;5.60;99.90;;;;;;5111380;28;20036;-82
2021/12/28 04:37:08;;;;;;;246.65;54.35;;;5.50;99.90;;;;;;5096093;28;20043;-83
2021/12/28 04:39:33;;;;;;;251.98;53.22;;;5.50;99.90;;;;;;5101891;28;20039;-83
2021/12/28 04:41:59;;;;;;;234.07;52.95;;;5.50;99.90;;;;;;5096024;28;20054;-83
2021/12/28 04:44:25;;;;;;;183.75;49.97;;;5.50;99.90;;;;;;5095756;28;20396;-82
2021/12/28 04:46:55;;;;;;;176.07;48.95;;;5.50;99.90;;;;;;5115698;28;20141;-83
2021/12/28 04:49:24;;;;;;;184.82;50.80;;;5.50;99.90;;;;;;5116292;28;20073;-83
2021/12/28 04:51:50;;;;;;;162.98;47.78;;;5.40;99.90;;;;;;5116026;28;20044;-83
2021/12/28 04:54:17;;;;;;;176.40;49.50;;;5.40;99.90;;;;;;5115201;28;20100;-81
2021/12/28 04:56:43;;;;;;;147.00;47.00;;;5.40;99.90;;;;;;5113742;28;20070;-83
2021/12/28 04:59:09;;;;;;;144.85;48.58;;;5.40;99.90;;;;;;5116141;27;20050;-83
2021/12/28 05:01:37;;;;;;;124.47;44.42;;;5.50;99.90;;;;;;5098626;28;20040;-83
2021/12/28 05:04:04;;;;;;;124.43;46.25;;;5.50;99.90;;;;;;5095542;28;20052;-84
2021/12/28 05:06:30;;;;;;;133.57;45.50;;;5.50;99.90;;;;;;5112756;28;20047;-83
2021/12/28 05:08:56;;;;;;;118.07;43.85;;;5.50;99.90;;;;;;5115974;28;20373;-83
2021/12/28 05:11:22;;;;;;;122.45;44.13;;;5.50;99.90;;;;;;5108856;28;20050;-84
2021/12/28 05:13:48;;;;;;;130.82;47.17;;;5.50;99.90;;;;;;5115406;27;20468;-83
2021/12/28 05:16:15;;;;;;;126.65;45.58;;;5.50;99.90;;;;;;5110595;28;20079;-84
2021/12/28 05:18:41;;;;;;;114.70;43.80;;;5.50;99.90;;;;;;5115308;28;20048;-83
2021/12/28 05:21:08;;;;;;;108.20;42.30;;;5.50;99.90;;;;;;5115248;28;20047;-84
2021/12/28 05:23:34;;;;;;;104.82;42.85;;;5.50;99.90;;;;;;5115180;28;20171;-84
2021/12/28 05:26:00;;;;;;;114.65;42.13;;;5.50;99.90;;;;;;5103683;28;20051;-84
2021/12/28 05:28:26;;;;;;;118.80;42.42;;;5.50;99.90;;;;;;5095194;28;20055;-84
2021/12/28 05:30:52;;;;;;;104.32;42.97;;;5.50;99.90;;;;;;5105670;28;20117;-84
2021/12/28 05:33:18;;;;;;;93.88;38.78;;;5.60;99.90;;;;;;5115466;28;20044;-83
2021/12/28 05:35:44;;;;;;;95.55;39.63;;;5.60;99.90;;;;;;5105557;28;20549;-84
2021/12/28 05:38:12;;;;;;;84.28;38.15;;;5.50;99.90;;;;;;5094935;28;20044;-84
2021/12/28 05:40:39;;;;;;;92.10;39.05;;;5.50;99.90;;;;;;5100616;28;20118;-84
2021/12/28 05:43:05;;;;;;;82.82;37.28;;;5.50;99.90;;;;;;5113041;28;20048;-84
2021/12/28 05:45:31;;;;;;;93.35;39.95;;;5.50;99.90;;;;;;5103981;28;20044;-84
2021/12/28 05:47:57;;;;;;;89.15;37.53;;;5.50;99.90;;;;;;5094708;28;20048;-85
2021/12/28 05:50:23;;;;;;;82.05;36.08;;;5.50;99.90;;;;;;5102794;28;20058;-85
2021/12/28 05:52:48;;;;;;;69.68;33.63;;;5.50;99.90;;;;;;5102386;28;20515;-84
2021/12/28 05:55:14;;;;;;;73.57;33.38;;;5.50;99.90;;;;;;5100646;28;20035;-84
2021/12/28 05:57:40;;;;;;;72.28;34.53;;;5.40;99.90;;;;;;5114219;28;20056;-84
2021/12/28 06:00:08;;;;;;;70.75;33.50;;;5.40;99.90;;;;;;5110214;28;20044;-85
2021/12/28 06:02:33;;;;;;;69.45;34.55;;;5.40;99.90;;;;;;5100354;28;20052;-84
2021/12/28 06:04:59;;;;;;;72.05;32.47;;;5.30;99.90;;;;;;5110443;28;20101;-79
2021/12/28 06:07:27;;;;;;;66.63;30.92;;;5.30;99.90;;;;;;5114290;28;20400;-85
2021/12/28 06:09:55;;;;;;;62.88;30.65;;;5.20;99.90;;;;;;5112861;28;20180;-84
2021/12/28 06:12:21;;;;;;;63.55;31.33;;;5.20;99.90;;;;;;5093312;28;20044;-85
2021/12/28 06:14:46;;;;;;;67.65;32.20;;;5.20;99.90;;;;;;5097289;28;20054;-81
2021/12/28 06:17:12;;;;;;;72.78;32.80;;;5.10;99.90;;;;;;5112279;28;20047;-84
2021/12/28 06:19:38;;;;;;;62.67;31.45;;;5.10;99.90;;;;;;5111228;28;20054;-85
2021/12/28 06:22:04;;;;;;;65.03;30.90;;;5.10;99.90;;;;;;5094128;28;20048;-85
2021/12/28 06:24:29;;;;;;;69.10;32.55;;;5.10;99.90;;;;;;5094129;28;20048;-85
2021/12/28 06:26:55;;;;;;;61.00;31.70;;;5.10;99.90;;;;;;5110017;28;20135;-86
2021/12/28 06:29:21;;;;;;;61.88;31.33;;;5.10;99.90;;;;;;5114505;28;20054;-86
2021/12/28 06:31:47;;;;;;;62.65;31.33;;;5.10;99.90;;;;;;5094934;28;20083;-85
2021/12/28 06:34:12;;;;;;;64.80;32.40;;;5.20;99.90;;;;;;5109213;28;20088;-85
2021/12/28 06:36:38;;;;;;;59.28;32.35;;;5.20;99.90;;;;;;5096751;28;20079;-86
2021/12/28 06:39:05;;;;;;;60.75;32.20;;;5.30;99.90;;;;;;5093779;28;20040;-86
2021/12/28 06:41:30;;;;;;;58.00;30.42;;;5.30;99.90;;;;;;5108345;28;20070;-86
2021/12/28 06:43:56;;;;;;;62.15;31.92;;;5.40;99.90;;;;;;5113636;28;20470;-85
2021/12/28 06:46:22;;;;;;;60.95;31.27;;;5.30;99.90;;;;;;5111459;28;20127;-85
2021/12/28 06:48:48;;;;;;;55.72;30.33;;;5.30;99.90;;;;;;5096564;28;20127;-85
2021/12/28 06:51:14;;;;;;;56.05;29.83;;;5.40;99.90;;;;;;5108193;28;20044;-86
2021/12/28 06:53:40;;;;;;;49.75;28.55;;;5.40;99.90;;;;;;5113377;28;20051;-85
2021/12/28 06:56:07;;;;;;;47.83;28.17;;;5.40;99.90;;;;;;5113069;28;20044;-85
2021/12/28 06:58:33;;;;;;;52.85;28.15;;;5.40;99.90;;;;;;5111682;27;20071;-86
2021/12/28 07:00:58;;;;;;;50.90;27.40;;;5.40;99.90;;;;;;5101267;28;20433;-85
2021/12/28 07:03:24;;;;;;;49.75;26.42;;;5.40;99.90;;;;;;5096427;28;20035;-84
2021/12/28 07:05:50;;;;;;;43.63;25.73;;;5.30;99.90;;;;;;5103018;28;20040;-85
2021/12/28 07:08:15;;;;;;;43.65;25.38;;;5.30;99.90;;;;;;5093274;28;20047;-85
2021/12/28 07:10:42;;;;;;;43.28;24.67;;;5.30;99.90;;;;;;5100882;28;20048;-84
2021/12/28 07:13:08;;;;;;;43.63;24.75;;;5.30;99.90;;;;;;5113716;28;20063;-86
2021/12/28 07:15:34;;;;;;;42.40;25.02;;;5.30;99.90;;;;;;5112034;28;20075;-86
2021/12/28 07:18:00;;;;;;;41.58;24.98;;;5.20;99.90;;;;;;5113090;28;20051;-85
2021/12/28 07:20:27;;;;;;;40.15;23.95;;;5.20;99.90;;;;;;5106969;28;20048;-85
2021/12/28 07:22:52;;;;;;;41.78;24.17;;;5.20;99.90;;;;;;5113019;28;20048;-84
2021/12/28 07:25:18;;;;;;;39.50;23.35;;;5.20;99.90;;;;;;5111241;28;20043;-85
2021/12/28 07:27:44;;;;;;;42.85;23.88;;;5.20;99.90;;;;;;5113043;28;20122;-84
2021/12/28 07:30:12;;;;;;;43.40;22.92;;;5.30;99.90;;;;;;5111633;28;20152;-84
2021/12/28 07:32:38;;;;;;;38.05;23.27;;;5.30;99.90;;;;;;5111751;28;20511;-85
2021/12/28 07:35:05;;;;;;;40.83;22.85;;;5.20;99.90;;;;;;5106221;28;20111;-84
2021/12/28 07:37:30;;;;;;;41.63;22.98;;;5.20;99.90;;;;;;5092587;28;20052;-82
2021/12/28 07:39:56;;;;;;;37.35;21.77;;;5.20;99.90;;;;;;5092304;28;20042;-84
2021/12/28 07:42:22;;;;;;;40.22;22.30;;;5.20;99.90;;;;;;5099271;28;20123;-84
2021/12/28 07:44:49;;;;;;;43.72;22.77;;;5.20;99.90;;;;;;5109678;28;20040;-84
2021/12/28 07:47:15;;;;;;;41.38;22.90;;;5.40;99.90;;;;;;5092765;28;20044;-84
2021/12/28 07:49:41;;;;;;;42.88;22.92;;;5.30;99.90;;;;;;5093419;28;20085;-83
2021/12/28 07:52:07;;;;;;;41.90;22.63;;;5.40;99.90;;;;;;5111247;28;20048;-78
2021/12/28 07:54:33;;;;;;;41.78;23.10;;;5.40;99.90;;;;;;5093341;28;20134;-83
2021/12/28 07:56:58;;;;;;;39.92;22.75;;;5.50;99.90;;;;;;5110168;28;20059;-85
2021/12/28 07:59:26;;;;;;;43.15;23.02;;;5.50;99.90;;;;;;5111754;28;20047;-84
2021/12/28 08:01:51;;;;;;;39.85;22.83;;;5.60;99.90;;;;;;5098143;28;20114;-84
2021/12/28 08:04:17;;;;;;;32.75;21.42;;;5.60;99.90;;;;;;5097763;28;20040;-84
2021/12/28 08:06:44;;;;;;;33.58;21.30;;;5.60;99.90;;;;;;5108402;28;20055;-82
2021/12/28 08:09:10;;;;;;;35.40;20.85;;;5.60;99.90;;;;;;5098414;28;20051;-84
2021/12/28 08:11:36;;;;;;;36.95;19.42;;;5.70;99.90;;;;;;5109880;28;20050;-84
2021/12/28 08:14:04;;;;;;;36.03;20.30;;;5.70;99.90;;;;;;5112095;27;20399;-83
2021/12/28 08:16:30;;;;;;;32.25;19.70;;;5.70;99.90;;;;;;5100123;28;20048;-84
2021/12/28 08:18:56;;;;;;;31.33;19.80;;;5.70;99.90;;;;;;5095143;28;20093;-82
2021/12/28 08:21:21;;;;;;;33.67;19.30;;;5.70;99.90;;;;;;5096135;28;20052;-84
2021/12/28 08:23:47;;;;;;;34.25;19.48;;;5.70;99.90;;;;;;5095952;28;20554;-84
2021/12/28 08:26:16;;;;;;;32.50;18.52;;;5.80;99.90;;;;;;5095023;28;20056;-83
2021/12/28 08:28:42;;;;;;;35.65;19.20;;;5.80;99.90;;;;;;5098270;28;20046;-84
2021/12/28 08:31:08;;;;;;;36.28;18.90;;;5.90;99.90;;;;;;5094857;28;20048;-84
2021/12/28 08:33:34;;;;;;;31.80;18.85;;;5.90;99.90;;;;;;5095756;28;20051;-84
2021/12/28 08:35:59;;;;;;;31.13;18.25;;;5.90;99.90;;;;;;5074875;28;20040;-84
2021/12/28 08:38:25;;;;;;;29.38;18.30;;;6.00;99.90;;;;;;5088914;28;20040;-85
2021/12/28 08:40:51;;;;;;;31.58;17.55;;;6.00;99.90;;;;;;5095170;28;20122;-77
2021/12/28 08:43:17;;;;;;;33.55;16.75;;;6.00;99.90;;;;;;5094512;28;20040;-84
2021/12/28 08:45:43;;;;;;;27.52;15.68;;;6.10;99.90;;;;;;5095322;28;20098;-84
2021/12/28 08:48:13;;;;;;;24.88;15.73;;;6.10;99.90;;;;;;5094985;28;20044;-84
2021/12/28 08:50:40;;;;;;;27.00;16.10;;;6.10;99.90;;;;;;5087372;28;20047;-83
2021/12/28 08:53:06;;;;;;;25.50;15.07;;;6.10;99.90;;;;;;5088687;28;20032;-79
2021/12/28 08:55:32;;;;;;;27.15;15.57;;;6.10;99.90;;;;;;5092023;28;20098;-84
2021/12/28 08:57:59;;;;;;;27.63;14.68;;;6.10;99.90;;;;;;5091851;28;20496;-82
2021/12/28 09:00:27;;;;;;;24.17;14.40;;;6.10;99.90;;;;;;5089286;28;20055;-79
2021/12/28 09:02:54;;;;;;;24.38;14.10;;;6.10;99.90;;;;;;5092604;28;20054;-83
2021/12/28 09:05:21;;;;;;;29.65;14.82;;;6.10;99.90;;;;;;5093049;28;20050;-86
2021/12/28 09:07:47;;;;;;;27.40;15.02;;;6.10;99.90;;;;;;5098264;28;20039;-87
2021/12/28 09:10:13;;;;;;;27.60;14.50;;;6.10;99.90;;;;;;5112019;28;20082;-86
2021/12/28 09:12:39;;;;;;;28.35;14.32;;;6.20;99.90;;;;;;5099695;28;20468;-82
2021/12/28 09:15:06;;;;;;;26.58;14.85;;;6.20;99.90;;;;;;5090167;28;20032;-87
2021/12/28 09:17:34;;;;;;;24.77;14.60;;;6.20;99.90;;;;;;5092205;28;20147;-88
2021/12/28 09:20:05;;;;;;;28.98;15.05;;;6.30;99.90;;;;;;5089408;28;20048;-85
2021/12/28 09:22:31;;;;;;;28.58;14.18;;;6.30;99.90;;;;;;5091482;28;20054;-88
2021/12/28 09:24:57;;;;;;;28.90;14.77;;;6.40;99.90;;;;;;5089006;28;20033;-85
2021/12/28 09:27:23;;;;;;;30.02;14.38;;;6.50;99.90;;;;;;5090630;28;20055;-83
2021/12/28 09:29:49;;;;;;;23.17;14.02;;;6.60;99.90;;;;;;5089513;28;20066;-88
2021/12/28 09:32:14;;;;;;;22.38;13.55;;;6.60;99.90;;;;;;5091207;28;20040;-86
2021/12/28 09:34:43;;;;;;;25.05;12.95;;;6.80;99.90;;;;;;5091304;28;20497;-87
2021/12/28 09:37:09;;;;;;;21.63;12.57;;;6.80;99.90;;;;;;5091238;28;20077;-88
2021/12/28 09:39:34;;;;;;;23.73;13.18;;;6.90;99.90;;;;;;5091259;28;20405;-79
2021/12/28 09:42:02;;;;;;;24.00;11.60;;;6.90;99.90;;;;;;5090894;28;20389;-85
2021/12/28 09:44:32;;;;;;;21.20;11.40;;;7.00;99.90;;;;;;5091208;28;20040;-85
2021/12/28 09:46:59;;;;;;;21.97;11.47;;;7.00;99.90;;;;;;5090632;28;20047;-80
2021/12/28 09:49:27;;;;;;;23.38;10.52;;;7.10;99.90;;;;;;5091412;28;20051;-87
2021/12/28 09:51:55;;;;;;;20.55;9.57;;;7.20;99.90;;;;;;5090561;28;20044;-87
2021/12/28 09:54:26;;;;;;;20.17;10.48;;;7.30;99.90;;;;;;5090845;28;20040;-85
2021/12/28 09:56:53;;;;;;;16.60;9.90;;;7.30;99.90;;;;;;5091361;28;20404;-88
2021/12/28 09:59:19;;;;;;;19.80;10.10;;;7.30;99.90;;;;;;5091042;28;20052;-84
2021/12/28 10:01:44;;;;;;;18.20;9.45;;;7.40;99.90;;;;;;5090893;28;20059;-89
2021/12/28 10:04:10;;;;;;;14.70;8.85;;;7.40;99.90;;;;;;5090171;28;20070;-86
2021/12/28 10:06:36;;;;;;;17.05;8.60;;;7.40;99.90;;;;;;5091097;28;20051;-82
2021/12/28 10:09:06;;;;;;;17.67;9.10;;;7.40;99.90;;;;;;5090636;28;20142;-87
2021/12/28 10:11:39;;;;;;;16.33;8.52;;;7.50;99.90;;;;;;5092054;28;20054;-86
2021/12/28 10:14:30;;;;;;;18.38;9.00;;;7.50;99.90;;;;;;5091509;28;20046;-86
2021/12/28 10:16:59;;;;;;;19.00;8.93;;;7.50;99.90;;;;;;5102926;28;20488;-86
2021/12/28 10:19:45;;;;;;;14.98;8.95;;;7.60;99.90;;;;;;5110918;28;20054;-85
2021/12/28 10:22:30;;;;;;;17.27;9.40;;;7.60;99.90;;;;;;5095796;28;20063;-88
2021/12/28 10:25:00;;;;;;;17.67;7.63;;;7.60;99.90;;;;;;5101402;28;20044;-86
2021/12/28 10:27:29;;;;;;;18.88;9.32;;;7.70;99.90;;;;;;5097455;28;20048;-78
2021/12/28 10:30:06;;;;;;;13.73;8.38;;;7.70;99.90;;;;;;5092790;28;20169;-87
2021/12/28 10:32:33;;;;;;;18.40;9.00;;;7.70;99.90;;;;;;5089785;28;20052;-79
2021/12/28 10:35:06;;;;;;;17.38;8.85;;;7.70;99.90;;;;;;5090972;28;20044;-85
2021/12/28 10:37:35;;;;;;;14.95;8.60;;;7.80;99.90;;;;;;5091469;28;20070;-80
2021/12/28 10:40:05;;;;;;;18.75;8.50;;;7.80;99.90;;;;;;5092035;28;20484;-86
2021/12/28 10:42:54;;;;;;;13.40;8.13;;;7.80;99.90;;;;;;5090054;28;20051;-86
2021/12/28 10:45:48;;;;;;;15.77;8.52;;;7.80;99.90;;;;;;5095136;28;20044;-84
2021/12/28 10:48:20;;;;;;;15.55;8.60;;;7.80;99.90;;;;;;5096695;28;20555;-76
2021/12/28 10:50:48;;;;;;;17.33;8.32;;;7.90;99.90;;;;;;5091066;28;20053;-81
2021/12/28 10:53:24;;;;;;;15.48;8.15;;;7.90;99.90;;;;;;5083098;28;20040;-80
2021/12/28 10:55:57;;;;;;;15.82;8.77;;;8.00;99.90;;;;;;5088597;28;20047;-81
2021/12/28 10:58:27;;;;;;;15.85;8.25;;;8.00;99.90;;;;;;5088921;28;20063;-79
2021/12/28 11:00:54;;;;;;;12.43;7.50;;;8.10;99.90;;;;;;5090360;28;20488;-84
2021/12/28 11:03:31;;;;;;;16.00;8.77;;;8.00;99.90;;;;;;5095226;28;20050;-82
2021/12/28 11:05:59;;;;;;;13.68;8.40;;;8.10;99.90;;;;;;5092518;28;20059;-81
2021/12/28 11:08:27;;;;;;;13.00;9.13;;;8.10;99.90;;;;;;5092512;28;20054;-82
2021/12/28 11:11:00;;;;;;;17.30;8.68;;;8.10;99.90;;;;;;5092869;28;20090;-82
2021/12/28 11:13:28;;;;;;;16.10;8.55;;;8.10;99.90;;;;;;5092264;28;20048;-82
2021/12/28 11:15:56;;;;;;;18.67;9.20;;;8.00;99.90;;;;;;5092834;28;20051;-83
2021/12/28 11:18:44;;;;;;;16.42;8.73;;;8.10;99.90;;;;;;5092759;28;20497;-83
2021/12/28 11:21:17;;;;;;;17.23;8.90;;;8.00;99.90;;;;;;5091443;28;20059;-84
2021/12/28 11:23:46;;;;;;;17.02;9.63;;;8.00;99.90;;;;;;5092899;28;20047;-82
2021/12/28 11:26:14;;;;;;;16.63;9.75;;;8.00;99.90;;;;;;5091993;28;20039;-81
2021/12/28 11:28:42;;;;;;;17.40;9.45;;;8.10;99.90;;;;;;5093026;28;20097;-82
2021/12/28 11:31:16;;;;;;;15.63;9.52;;;8.10;99.90;;;;;;5092593;28;20055;-83
2021/12/28 11:33:56;;;;;;;17.85;10.10;;;8.10;99.90;;;;;;5095843;28;20457;-79
2021/12/28 11:36:26;;;;;;;19.48;10.75;;;8.10;99.90;;;;;;5101042;28;20044;-76
2021/12/28 11:38:53;;;;;;;19.70;11.35;;;8.10;99.90;;;;;;5100194;28;20040;-77
2021/12/28 11:41:19;;;;;;;18.40;10.80;;;8.10;99.90;;;;;;5099362;28;20047;-75
2021/12/28 11:43:45;;;;;;;20.30;12.27;;;8.10;99.90;;;;;;5101621;28;20118;-76
2021/12/28 11:46:13;;;;;;;23.95;11.85;;;8.10;99.90;;;;;;5098129;28;20068;-73
2021/12/28 11:48:39;;;;;;;17.88;11.93;;;8.20;99.90;;;;;;5108700;28;20040;-75
2021/12/28 11:51:05;;;;;;;18.75;11.20;;;8.20;99.90;;;;;;5105506;28;20088;-76
2021/12/28 11:53:39;;;;;;;19.73;12.10;;;8.20;99.90;;;;;;5094214;28;20044;-75
2021/12/28 11:56:07;;;;;;;17.65;11.88;;;8.20;99.90;;;;;;5083413;28;20043;-76
2021/12/28 11:59:00;;;;;;;17.63;11.93;;;8.20;99.90;;;;;;5093311;28;20565;-76
2021/12/28 12:01:52;;;;;;;18.00;12.50;;;8.20;99.90;;;;;;5108875;28;20052;-77
2021/12/28 12:04:27;;;;;;;20.48;13.00;;;8.10;99.90;;;;;;5093552;28;20671;-75
2021/12/28 12:07:10;;;;;;;23.10;13.48;;;8.10;99.90;;;;;;5095848;28;20082;-76
2021/12/28 12:09:59;;;;;;;19.80;13.10;;;8.10;99.90;;;;;;5093224;28;20040;-77
2021/12/28 12:12:29;;;;;;;20.33;13.40;;;8.20;99.90;;;;;;5091591;28;20044;-76
2021/12/28 12:15:09;;;;;;;20.75;13.90;;;8.20;99.90;;;;;;5091719;28;20056;-75
2021/12/28 12:17:38;;;;;;;20.85;14.75;;;8.20;99.90;;;;;;5091929;28;20120;-74
2021/12/28 12:20:18;;;;;;;21.23;14.98;;;8.20;99.90;;;;;;5093326;28;20080;-73
2021/12/28 12:23:09;;;;;;;19.63;15.52;;;8.20;99.90;;;;;;5088418;28;20052;-75
2021/12/28 12:26:09;;;;;;;18.05;14.98;;;8.20;99.90;;;;;;5090427;28;20295;-75
2021/12/28 12:28:45;;;;;;;20.02;15.75;;;8.20;99.90;;;;;;5088765;28;20075;-75
2021/12/28 12:31:32;;;;;;;20.17;15.38;;;8.20;99.90;;;;;;5092587;28;20052;-75
2021/12/28 12:34:00;;;;;;;20.65;15.63;;;8.20;99.90;;;;;;5091917;28;20063;-75
2021/12/28 12:36:33;;;;;;;20.98;15.80;;;8.10;99.90;;;;;;5092000;28;20090;-74
2021/12/28 12:38:59;;;;;;;21.98;17.23;;;8.20;99.90;;;;;;5092198;28;20064;-75
2021/12/28 12:41:48;;;;;;;21.77;16.30;;;8.20;99.90;;;;;;5091538;28;20078;-76
2021/12/28 12:44:17;;;;;;;21.85;16.38;;;8.20;99.90;;;;;;5092369;28;20408;-75